Afton, California
Current Conditions -  °F | °C
As of 5:53 AM on Saturday 25 Oct 2014 (Local Time) from KOVE Reporting Station
Overcast Overcast  
Wind Chill: 66°   Ceiling: 3900
Heat Index: 66°   Visibility: 10mi
Dew Point: 50°   Wind: 17mph
Humidity: 56%   Direction: 140°SE
Pressure: 29.88"   Gusts: 25mph
Location:  39.4608°N, 121.937°W
Report Text: KOVE 251253Z AUTO 14015G22KT 10SM OVC039 19/10 A2988 RMK AO2 PK WND 12026/1216 SLP119 T01890100
Loading
Personal Weather Stations






























Interactive Weather Map
Tropical Storm Tracking
New forecast layout! Learn more

10-Day Weather Forecast

Advertisements
Track Severe Weather on mobile